sensor_id;sensor_type;location;lat;lon;timestamp;pressure;altitude;pressure_sealevel;temperature;humidity
70011;BME280;59543;37.950;-122.338;2023-05-20T00:01:02;101538.00;;;18.19;68.08
70011;BME280;59543;37.950;-122.338;2023-05-20T00:03:28;101542.28;;;18.45;66.42
70011;BME280;59543;37.950;-122.338;2023-05-20T00:05:55;101544.38;;;18.12;66.23
70011;BME280;59543;37.950;-122.338;2023-05-20T00:08:21;101539.53;;;17.91;67.31
70011;BME280;59543;37.950;-122.338;2023-05-20T00:10:47;101547.09;;;18.12;66.81
70011;BME280;59543;37.950;-122.338;2023-05-20T00:13:13;101537.91;;;18.04;66.78
70011;BME280;59543;37.950;-122.338;2023-05-20T00:15:40;101533.00;;;17.60;67.55
70011;BME280;59543;37.950;-122.338;2023-05-20T00:18:06;101526.53;;;17.06;68.91
70011;BME280;59543;37.950;-122.338;2023-05-20T00:20:32;101521.25;;;17.12;69.41
70011;BME280;59543;37.950;-122.338;2023-05-20T00:22:59;101529.59;;;16.78;71.31
70011;BME280;59543;37.950;-122.338;2023-05-20T00:25:25;101526.38;;;16.91;70.39
70011;BME280;59543;37.950;-122.338;2023-05-20T00:27:52;101527.69;;;16.54;71.33
70011;BME280;59543;37.950;-122.338;2023-05-20T00:30:18;101534.31;;;16.60;72.38
70011;BME280;59543;37.950;-122.338;2023-05-20T00:32:44;101520.72;;;16.27;73.36
70011;BME280;59543;37.950;-122.338;2023-05-20T00:35:10;101522.94;;;16.32;73.40
70011;BME280;59543;37.950;-122.338;2023-05-20T00:37:37;101521.56;;;16.36;73.53
70011;BME280;59543;37.950;-122.338;2023-05-20T00:40:04;101528.69;;;16.29;73.76
70011;BME280;59543;37.950;-122.338;2023-05-20T00:42:30;101516.69;;;16.56;73.43
70011;BME280;59543;37.950;-122.338;2023-05-20T00:44:56;101513.44;;;16.28;74.13
70011;BME280;59543;37.950;-122.338;2023-05-20T00:47:27;101515.06;;;15.96;74.83
70011;BME280;59543;37.950;-122.338;2023-05-20T00:49:53;101516.94;;;16.12;75.23
70011;BME280;59543;37.950;-122.338;2023-05-20T00:52:21;101516.19;;;15.77;75.33
70011;BME280;59543;37.950;-122.338;2023-05-20T00:54:48;101517.88;;;15.78;76.92
70011;BME280;59543;37.950;-122.338;2023-05-20T00:57:18;101526.94;;;15.61;76.73
70011;BME280;59543;37.950;-122.338;2023-05-20T00:59:44;101521.88;;;15.66;77.04
70011;BME280;59543;37.950;-122.338;2023-05-20T01:02:11;101526.78;;;15.62;76.87
70011;BME280;59543;37.950;-122.338;2023-05-20T01:04:37;101515.31;;;15.68;77.51
70011;BME280;59543;37.950;-122.338;2023-05-20T01:07:04;101517.38;;;15.74;76.66
70011;BME280;59543;37.950;-122.338;2023-05-20T01:09:32;101517.56;;;15.81;77.02
70011;BME280;59543;37.950;-122.338;2023-05-20T01:12:05;101508.56;;;15.81;76.53
70011;BME280;59543;37.950;-122.338;2023-05-20T01:14:38;101512.66;;;15.93;76.01
70011;BME280;59543;37.950;-122.338;2023-05-20T01:17:09;101507.88;;;15.78;75.92
70011;BME280;59543;37.950;-122.338;2023-05-20T01:19:46;101512.13;;;15.81;76.36
70011;BME280;59543;37.950;-122.338;2023-05-20T01:22:14;101505.66;;;15.74;76.53
70011;BME280;59543;37.950;-122.338;2023-05-20T01:24:45;101513.13;;;15.46;77.17
70011;BME280;59543;37.950;-122.338;2023-05-20T01:27:14;101513.50;;;15.93;76.61
70011;BME280;59543;37.950;-122.338;2023-05-20T01:29:41;101510.78;;;15.85;75.93
70011;BME280;59543;37.950;-122.338;2023-05-20T01:32:13;101508.63;;;16.05;75.22
70011;BME280;59543;37.950;-122.338;2023-05-20T01:34:41;101513.94;;;16.23;74.94
70011;BME280;59543;37.950;-122.338;2023-05-20T01:37:09;101500.34;;;16.23;74.89
70011;BME280;59543;37.950;-122.338;2023-05-20T01:39:37;101507.63;;;16.14;74.82
70011;BME280;59543;37.950;-122.338;2023-05-20T01:42:07;101518.31;;;16.08;75.62
70011;BME280;59543;37.950;-122.338;2023-05-20T01:44:34;101521.72;;;16.10;75.34
70011;BME280;59543;37.950;-122.338;2023-05-20T01:47:00;101523.91;;;16.14;75.14
70011;BME280;59543;37.950;-122.338;2023-05-20T01:49:26;101519.78;;;15.94;75.97
70011;BME280;59543;37.950;-122.338;2023-05-20T01:51:53;101528.00;;;16.10;75.22
70011;BME280;59543;37.950;-122.338;2023-05-20T01:54:20;101521.31;;;15.96;75.57
70011;BME280;59543;37.950;-122.338;2023-05-20T01:56:46;101510.53;;;16.21;74.99
70011;BME280;59543;37.950;-122.338;2023-05-20T01:59:12;101523.28;;;16.29;74.14
70011;BME280;59543;37.950;-122.338;2023-05-20T02:01:39;101507.47;;;16.24;74.41
70011;BME280;59543;37.950;-122.338;2023-05-20T02:04:05;101526.28;;;16.09;74.16
70011;BME280;59543;37.950;-122.338;2023-05-20T02:06:31;101519.16;;;16.08;74.87
70011;BME280;59543;37.950;-122.338;2023-05-20T02:08:57;101525.63;;;16.23;73.96
70011;BME280;59543;37.950;-122.338;2023-05-20T02:11:24;101518.34;;;16.16;73.98
70011;BME280;59543;37.950;-122.338;2023-05-20T02:13:50;101524.44;;;16.26;73.43
70011;BME280;59543;37.950;-122.338;2023-05-20T02:16:17;101520.91;;;16.50;72.33
70011;BME280;59543;37.950;-122.338;2023-05-20T02:18:43;101532.47;;;16.68;71.76
70011;BME280;59543;37.950;-122.338;2023-05-20T02:21:09;101538.56;;;16.54;72.07
70011;BME280;59543;37.950;-122.338;2023-05-20T02:23:35;101532.09;;;16.22;72.83
70011;BME280;59543;37.950;-122.338;2023-05-20T02:26:02;101530.44;;;16.71;71.24
70011;BME280;59543;37.950;-122.338;2023-05-20T02:28:28;101524.31;;;16.60;71.83
70011;BME280;59543;37.950;-122.338;2023-05-20T02:30:54;101518.22;;;16.83;70.54
70011;BME280;59543;37.950;-122.338;2023-05-20T02:33:20;101507.50;;;16.65;70.65
70011;BME280;59543;37.950;-122.338;2023-05-20T02:35:47;101523.47;;;16.52;71.32
70011;BME280;59543;37.950;-122.338;2023-05-20T02:38:13;101523.59;;;16.26;72.57
70011;BME280;59543;37.950;-122.338;2023-05-20T02:40:43;101523.06;;;16.14;73.10
70011;BME280;59543;37.950;-122.338;2023-05-20T02:43:10;101520.97;;;15.57;75.80
70011;BME280;59543;37.950;-122.338;2023-05-20T02:45:36;101517.56;;;15.47;76.31
70011;BME280;59543;37.950;-122.338;2023-05-20T02:48:02;101512.63;;;15.16;78.08
70011;BME280;59543;37.950;-122.338;2023-05-20T02:50:28;101527.81;;;14.83;79.53
70011;BME280;59543;37.950;-122.338;2023-05-20T02:52:55;101528.94;;;14.72;80.04
70011;BME280;59543;37.950;-122.338;2023-05-20T02:55:22;101536.88;;;14.38;82.03
70011;BME280;59543;37.950;-122.338;2023-05-20T02:57:48;101538.81;;;14.28;82.96
70011;BME280;59543;37.950;-122.338;2023-05-20T03:00:14;101530.59;;;14.37;82.90
70011;BME280;59543;37.950;-122.338;2023-05-20T03:02:41;101533.59;;;13.99;84.39
70011;BME280;59543;37.950;-122.338;2023-05-20T03:05:07;101540.50;;;13.83;85.21
70011;BME280;59543;37.950;-122.338;2023-05-20T03:07:34;101542.22;;;13.84;85.53
70011;BME280;59543;37.950;-122.338;2023-05-20T03:10:03;101545.38;;;13.80;85.99
70011;BME280;59543;37.950;-122.338;2023-05-20T03:12:31;101540.06;;;13.60;87.15
70011;BME280;59543;37.950;-122.338;2023-05-20T03:14:57;101541.94;;;13.50;88.24
70011;BME280;59543;37.950;-122.338;2023-05-20T03:17:26;101547.44;;;13.31;89.22
70011;BME280;59543;37.950;-122.338;2023-05-20T03:19:52;101537.63;;;13.30;89.46
70011;BME280;59543;37.950;-122.338;2023-05-20T03:22:19;101545.88;;;13.18;90.15
70011;BME280;59543;37.950;-122.338;2023-05-20T03:24:45;101549.31;;;13.11;90.65
70011;BME280;59543;37.950;-122.338;2023-05-20T03:27:13;101553.84;;;13.10;90.88
70011;BME280;59543;37.950;-122.338;2023-05-20T03:29:39;101549.47;;;12.99;91.43
70011;BME280;59543;37.950;-122.338;2023-05-20T03:32:06;101550.91;;;12.94;91.70
70011;BME280;59543;37.950;-122.338;2023-05-20T03:34:32;101560.00;;;12.83;92.70
70011;BME280;59543;37.950;-122.338;2023-05-20T03:36:58;101559.16;;;12.82;92.46
70011;BME280;59543;37.950;-122.338;2023-05-20T03:39:25;101563.00;;;12.80;92.55
70011;BME280;59543;37.950;-122.338;2023-05-20T03:41:51;101569.69;;;12.76;93.28
70011;BME280;59543;37.950;-122.338;2023-05-20T03:44:17;101569.97;;;12.73;93.31
70011;BME280;59543;37.950;-122.338;2023-05-20T03:46:45;101573.38;;;12.75;93.23
70011;BME280;59543;37.950;-122.338;2023-05-20T03:49:11;101575.78;;;12.58;94.45
70011;BME280;59543;37.950;-122.338;2023-05-20T03:51:37;101586.72;;;12.57;94.47
70011;BME280;59543;37.950;-122.338;2023-05-20T03:54:03;101590.41;;;12.66;94.11
70011;BME280;59543;37.950;-122.338;2023-05-20T03:56:29;101583.88;;;12.68;93.69
70011;BME280;59543;37.950;-122.338;2023-05-20T03:58:56;101589.41;;;12.57;94.72
70011;BME280;59543;37.950;-122.338;2023-05-20T04:01:22;101585.72;;;12.48;95.55
70011;BME280;59543;37.950;-122.338;2023-05-20T04:03:50;101583.34;;;12.55;95.04
70011;BME280;59543;37.950;-122.338;2023-05-20T04:06:16;101593.13;;;12.56;94.47
70011;BME280;59543;37.950;-122.338;2023-05-20T04:08:42;101591.44;;;12.55;94.65
70011;BME280;59543;37.950;-122.338;2023-05-20T04:11:09;101594.53;;;12.50;94.35
70011;BME280;59543;37.950;-122.338;2023-05-20T04:13:35;101601.78;;;12.50;94.88
70011;BME280;59543;37.950;-122.338;2023-05-20T04:16:01;101594.66;;;12.39;94.70
70011;BME280;59543;37.950;-122.338;2023-05-20T04:18:29;101601.22;;;12.37;95.54
70011;BME280;59543;37.950;-122.338;2023-05-20T04:20:56;101602.75;;;12.39;95.63
70011;BME280;59543;37.950;-122.338;2023-05-20T04:23:24;101612.69;;;12.39;96.14
70011;BME280;59543;37.950;-122.338;2023-05-20T04:25:50;101609.31;;;12.46;95.90
70011;BME280;59543;37.950;-122.338;2023-05-20T04:28:17;101620.97;;;12.47;95.54
70011;BME280;59543;37.950;-122.338;2023-05-20T04:30:46;101619.81;;;12.49;95.38
70011;BME280;59543;37.950;-122.338;2023-05-20T04:33:12;101622.25;;;12.52;95.03
70011;BME280;59543;37.950;-122.338;2023-05-20T04:35:39;101640.25;;;12.42;95.03
70011;BME280;59543;37.950;-122.338;2023-05-20T04:38:06;101635.84;;;12.41;95.05
70011;BME280;59543;37.950;-122.338;2023-05-20T04:40:33;101643.22;;;12.39;95.22
70011;BME280;59543;37.950;-122.338;2023-05-20T04:42:59;101648.78;;;12.47;94.54
70011;BME280;59543;37.950;-122.338;2023-05-20T04:45:25;101645.25;;;12.47;94.65
70011;BME280;59543;37.950;-122.338;2023-05-20T04:47:52;101640.69;;;12.57;94.42
70011;BME280;59543;37.950;-122.338;2023-05-20T04:50:18;101644.25;;;12.48;94.33
70011;BME280;59543;37.950;-122.338;2023-05-20T04:52:46;101651.22;;;12.50;94.73
70011;BME280;59543;37.950;-122.338;2023-05-20T04:55:12;101642.25;;;12.40;95.32
70011;BME280;59543;37.950;-122.338;2023-05-20T04:57:40;101642.25;;;12.50;95.18
70011;BME280;59543;37.950;-122.338;2023-05-20T05:00:11;101645.38;;;12.45;95.30
70011;BME280;59543;37.950;-122.338;2023-05-20T05:02:38;101650.75;;;12.45;95.27
70011;BME280;59543;37.950;-122.338;2023-05-20T05:05:04;101645.13;;;12.58;94.90
70011;BME280;59543;37.950;-122.338;2023-05-20T05:07:31;101652.47;;;12.37;96.34
70011;BME280;59543;37.950;-122.338;2023-05-20T05:09:57;101651.03;;;12.42;95.88
70011;BME280;59543;37.950;-122.338;2023-05-20T05:12:23;101654.47;;;12.44;95.83
70011;BME280;59543;37.950;-122.338;2023-05-20T05:14:49;101658.53;;;12.29;97.09
70011;BME280;59543;37.950;-122.338;2023-05-20T05:17:16;101663.28;;;12.37;96.97
70011;BME280;59543;37.950;-122.338;2023-05-20T05:19:42;101660.38;;;12.19;97.56
70011;BME280;59543;37.950;-122.338;2023-05-20T05:22:08;101658.91;;;12.15;98.46
70011;BME280;59543;37.950;-122.338;2023-05-20T05:24:34;101655.94;;;12.08;98.60
70011;BME280;59543;37.950;-122.338;2023-05-20T05:27:01;101656.09;;;12.16;98.27
70011;BME280;59543;37.950;-122.338;2023-05-20T05:29:27;101654.50;;;12.04;98.98
70011;BME280;59543;37.950;-122.338;2023-05-20T05:31:53;101659.00;;;12.03;98.89
70011;BME280;59543;37.950;-122.338;2023-05-20T05:34:19;101658.41;;;11.90;100.00
70011;BME280;59543;37.950;-122.338;2023-05-20T05:36:46;101664.53;;;11.92;99.83
70011;BME280;59543;37.950;-122.338;2023-05-20T05:39:12;101660.38;;;11.88;100.00
70011;BME280;59543;37.950;-122.338;2023-05-20T05:41:38;101662.53;;;11.94;99.78
70011;BME280;59543;37.950;-122.338;2023-05-20T05:44:05;101657.81;;;11.86;99.93
70011;BME280;59543;37.950;-122.338;2023-05-20T05:46:31;101650.75;;;11.85;99.48
70011;BME280;59543;37.950;-122.338;2023-05-20T05:48:58;101649.41;;;11.80;99.50
70011;BME280;59543;37.950;-122.338;2023-05-20T05:51:25;101662.41;;;11.75;99.50
70011;BME280;59543;37.950;-122.338;2023-05-20T05:53:52;101663.69;;;11.71;99.22
70011;BME280;59543;37.950;-122.338;2023-05-20T05:56:19;101656.84;;;11.66;99.47
70011;BME280;59543;37.950;-122.338;2023-05-20T05:58:46;101662.97;;;11.68;99.57
70011;BME280;59543;37.950;-122.338;2023-05-20T06:01:13;101662.22;;;11.66;99.94
70011;BME280;59543;37.950;-122.338;2023-05-20T06:03:39;101668.72;;;11.64;100.00
70011;BME280;59543;37.950;-122.338;2023-05-20T06:06:05;101660.38;;;11.67;100.00
70011;BME280;59543;37.950;-122.338;2023-05-20T06:08:32;101660.53;;;11.65;100.00
70011;BME280;59543;37.950;-122.338;2023-05-20T06:10:58;101645.34;;;11.64;100.00
70011;BME280;59543;37.950;-122.338;2023-05-20T06:13:24;101641.09;;;11.62;100.00
70011;BME280;59543;37.950;-122.338;2023-05-20T06:15:50;101638.00;;;11.76;99.74
70011;BME280;59543;37.950;-122.338;2023-05-20T06:18:18;101631.63;;;11.67;100.00
70011;BME280;59543;37.950;-122.338;2023-05-20T06:20:44;101641.47;;;11.57;100.00
70011;BME280;59543;37.950;-122.338;2023-05-20T06:23:10;101635.81;;;11.60;99.91
70011;BME280;59543;37.950;-122.338;2023-05-20T06:25:36;101629.75;;;11.68;99.61
70011;BME280;59543;37.950;-122.338;2023-05-20T06:28:03;101640.22;;;11.61;99.28
70011;BME280;59543;37.950;-122.338;2023-05-20T06:30:29;101647.28;;;11.53;99.39
70011;BME280;59543;37.950;-122.338;2023-05-20T06:32:55;101657.91;;;11.54;98.93
70011;BME280;59543;37.950;-122.338;2023-05-20T06:35:22;101645.16;;;11.56;99.28
70011;BME280;59543;37.950;-122.338;2023-05-20T06:37:48;101649.56;;;11.57;99.17
70011;BME280;59543;37.950;-122.338;2023-05-20T06:40:14;101641.34;;;11.59;99.61
70011;BME280;59543;37.950;-122.338;2023-05-20T06:42:40;101646.31;;;11.63;99.02
70011;BME280;59543;37.950;-122.338;2023-05-20T06:45:07;101642.19;;;11.59;99.36
70011;BME280;59543;37.950;-122.338;2023-05-20T06:47:35;101652.97;;;11.59;98.97
70011;BME280;59543;37.950;-122.338;2023-05-20T06:50:02;101641.19;;;11.60;98.77
70011;BME280;59543;37.950;-122.338;2023-05-20T06:52:28;101639.03;;;11.54;98.96
70011;BME280;59543;37.950;-122.338;2023-05-20T06:54:54;101634.78;;;11.52;99.29
70011;BME280;59543;37.950;-122.338;2023-05-20T06:57:21;101641.75;;;11.54;99.32
70011;BME280;59543;37.950;-122.338;2023-05-20T06:59:47;101638.19;;;11.54;98.61
70011;BME280;59543;37.950;-122.338;2023-05-20T07:02:13;101646.81;;;11.48;98.82
70011;BME280;59543;37.950;-122.338;2023-05-20T07:04:40;101643.28;;;11.47;98.20
70011;BME280;59543;37.950;-122.338;2023-05-20T07:07:06;101641.75;;;11.54;97.98
70011;BME280;59543;37.950;-122.338;2023-05-20T07:09:32;101635.31;;;11.45;98.22
70011;BME280;59543;37.950;-122.338;2023-05-20T07:11:58;101629.84;;;11.57;97.69
70011;BME280;59543;37.950;-122.338;2023-05-20T07:14:25;101640.63;;;11.57;97.55
70011;BME280;59543;37.950;-122.338;2023-05-20T07:16:51;101635.44;;;11.44;98.38
70011;BME280;59543;37.950;-122.338;2023-05-20T07:19:18;101631.28;;;11.40;98.64
70011;BME280;59543;37.950;-122.338;2023-05-20T07:21:44;101635.25;;;11.36;99.32
70011;BME280;59543;37.950;-122.338;2023-05-20T07:24:11;101635.25;;;11.36;99.23
70011;BME280;59543;37.950;-122.338;2023-05-20T07:26:37;101643.22;;;11.37;99.43
70011;BME280;59543;37.950;-122.338;2023-05-20T07:29:03;101648.59;;;11.37;98.76
70011;BME280;59543;37.950;-122.338;2023-05-20T07:31:30;101641.16;;;11.30;99.47
70011;BME280;59543;37.950;-122.338;2023-05-20T07:33:56;101632.72;;;11.34;99.75
70011;BME280;59543;37.950;-122.338;2023-05-20T07:36:24;101637.22;;;11.34;99.82
70011;BME280;59543;37.950;-122.338;2023-05-20T07:38:51;101631.44;;;11.38;99.65
70011;BME280;59543;37.950;-122.338;2023-05-20T07:41:17;101624.47;;;11.36;99.64
70011;BME280;59543;37.950;-122.338;2023-05-20T07:43:44;101629.00;;;11.35;99.69
70011;BME280;59543;37.950;-122.338;2023-05-20T07:46:10;101626.69;;;11.31;100.00
70011;BME280;59543;37.950;-122.338;2023-05-20T07:48:36;101622.19;;;11.31;100.00
70011;BME280;59543;37.950;-122.338;2023-05-20T07:51:03;101628.44;;;11.32;100.00
70011;BME280;59543;37.950;-122.338;2023-05-20T07:53:29;101625.16;;;11.28;100.00
70011;BME280;59543;37.950;-122.338;2023-05-20T07:55:55;101631.72;;;11.35;99.77
70011;BME280;59543;37.950;-122.338;2023-05-20T07:58:22;101638.47;;;11.30;99.42
70011;BME280;59543;37.950;-122.338;2023-05-20T08:00:48;101636.09;;;11.36;98.60
70011;BME280;59543;37.950;-122.338;2023-05-20T08:03:14;101635.19;;;11.26;99.04
70011;BME280;59543;37.950;-122.338;2023-05-20T08:05:41;101644.38;;;11.24;99.43
70011;BME280;59543;37.950;-122.338;2023-05-20T08:08:07;101635.72;;;11.20;99.50
70011;BME280;59543;37.950;-122.338;2023-05-20T08:10:35;101641.44;;;11.27;99.61
70011;BME280;59543;37.950;-122.338;2023-05-20T08:13:01;101642.69;;;11.23;99.55
70011;BME280;59543;37.950;-122.338;2023-05-20T08:15:28;101641.09;;;11.20;99.32
70011;BME280;59543;37.950;-122.338;2023-05-20T08:17:54;101623.22;;;11.19;98.55
70011;BME280;59543;37.950;-122.338;2023-05-20T08:20:20;101644.44;;;11.12;99.41
70011;BME280;59543;37.950;-122.338;2023-05-20T08:22:47;101633.94;;;11.09;99.45
70011;BME280;59543;37.950;-122.338;2023-05-20T08:25:13;101642.47;;;11.14;99.27
70011;BME280;59543;37.950;-122.338;2023-05-20T08:27:40;101631.31;;;11.19;99.42
70011;BME280;59543;37.950;-122.338;2023-05-20T08:30:07;101642.00;;;11.30;99.29
70011;BME280;59543;37.950;-122.338;2023-05-20T08:32:35;101646.09;;;11.25;99.58
70011;BME280;59543;37.950;-122.338;2023-05-20T08:35:02;101643.38;;;11.25;99.48
70011;BME280;59543;37.950;-122.338;2023-05-20T08:37:28;101645.66;;;11.19;99.05
70011;BME280;59543;37.950;-122.338;2023-05-20T08:39:55;101643.66;;;11.21;99.40
70011;BME280;59543;37.950;-122.338;2023-05-20T08:42:24;101644.25;;;11.25;99.63
70011;BME280;59543;37.950;-122.338;2023-05-20T08:44:53;101635.31;;;11.25;99.18
70011;BME280;59543;37.950;-122.338;2023-05-20T08:47:19;101641.69;;;11.24;99.22
70011;BME280;59543;37.950;-122.338;2023-05-20T08:49:48;101641.91;;;11.32;99.03
70011;BME280;59543;37.950;-122.338;2023-05-20T08:52:17;101639.06;;;11.33;99.28
70011;BME280;59543;37.950;-122.338;2023-05-20T08:54:48;101644.75;;;11.40;98.68
70011;BME280;59543;37.950;-122.338;2023-05-20T08:57:14;101646.59;;;11.39;98.61
70011;BME280;59543;37.950;-122.338;2023-05-20T08:59:42;101640.31;;;11.29;99.39
70011;BME280;59543;37.950;-122.338;2023-05-20T09:02:09;101649.13;;;11.31;98.73
70011;BME280;59543;37.950;-122.338;2023-05-20T09:04:36;101641.16;;;11.30;98.77
70011;BME280;59543;37.950;-122.338;2023-05-20T09:07:03;101645.19;;;11.35;98.24
70011;BME280;59543;37.950;-122.338;2023-05-20T09:09:31;101651.47;;;11.25;98.78
70011;BME280;59543;37.950;-122.338;2023-05-20T09:11:59;101652.69;;;11.32;98.87
70011;BME280;59543;37.950;-122.338;2023-05-20T09:14:26;101653.63;;;11.31;98.23
70011;BME280;59543;37.950;-122.338;2023-05-20T09:16:53;101639.78;;;11.35;97.70
70011;BME280;59543;37.950;-122.338;2023-05-20T09:19:21;101647.94;;;11.24;98.74
70011;BME280;59543;37.950;-122.338;2023-05-20T09:21:47;101651.09;;;11.29;98.71
70011;BME280;59543;37.950;-122.338;2023-05-20T09:24:14;101635.19;;;11.26;98.97
70011;BME280;59543;37.950;-122.338;2023-05-20T09:26:40;101642.00;;;11.30;98.93
70011;BME280;59543;37.950;-122.338;2023-05-20T09:29:06;101643.34;;;11.36;98.93
70011;BME280;59543;37.950;-122.338;2023-05-20T09:31:33;101654.97;;;11.36;98.89
70011;BME280;59543;37.950;-122.338;2023-05-20T09:34:00;101656.53;;;11.39;98.61
70011;BME280;59543;37.950;-122.338;2023-05-20T09:36:28;101656.16;;;11.43;98.10
70011;BME280;59543;37.950;-122.338;2023-05-20T09:39:00;101655.53;;;11.40;98.31
70011;BME280;59543;37.950;-122.338;2023-05-20T09:42:22;101653.56;;;11.42;98.45
70011;BME280;59543;37.950;-122.338;2023-05-20T09:44:29;101653.09;;;11.37;98.84
70011;BME280;59543;37.950;-122.338;2023-05-20T09:46:56;101658.59;;;11.47;98.10
70011;BME280;59543;37.950;-122.338;2023-05-20T09:49:24;101658.91;;;11.53;97.83
70011;BME280;59543;37.950;-122.338;2023-05-20T09:51:51;101649.81;;;11.54;97.96
70011;BME280;59543;37.950;-122.338;2023-05-20T09:54:18;101642.81;;;11.42;98.52
70011;BME280;59543;37.950;-122.338;2023-05-20T09:56:46;101646.50;;;11.41;98.92
70011;BME280;59543;37.950;-122.338;2023-05-20T09:59:14;101644.22;;;11.46;98.61
70011;BME280;59543;37.950;-122.338;2023-05-20T10:01:43;101640.84;;;11.44;98.32
70011;BME280;59543;37.950;-122.338;2023-05-20T10:04:12;101647.94;;;11.45;98.36
70011;BME280;59543;37.950;-122.338;2023-05-20T10:17:24;101638.94;;;11.56;98.40
70011;BME280;59543;37.950;-122.338;2023-05-20T10:19:46;101644.47;;;11.64;97.97
70011;BME280;59543;37.950;-122.338;2023-05-20T10:22:14;101635.72;;;11.72;97.29
70011;BME280;59543;37.950;-122.338;2023-05-20T10:24:42;101639.44;;;11.71;97.58
70011;BME280;59543;37.950;-122.338;2023-05-20T10:27:12;101634.56;;;11.64;97.44
70011;BME280;59543;37.950;-122.338;2023-05-20T10:29:56;101642.66;;;11.64;97.69
70011;BME280;59543;37.950;-122.338;2023-05-20T10:32:26;101639.69;;;11.67;97.58
70011;BME280;59543;37.950;-122.338;2023-05-20T10:34:58;101648.38;;;11.71;97.54
70011;BME280;59543;37.950;-122.338;2023-05-20T10:37:41;101650.00;;;11.62;97.66
70011;BME280;59543;37.950;-122.338;2023-05-20T10:40:09;101643.59;;;11.84;96.65
70011;BME280;59543;37.950;-122.338;2023-05-20T10:42:36;101635.47;;;11.75;95.73
70011;BME280;59543;37.950;-122.338;2023-05-20T10:45:03;101639.44;;;11.71;96.14
70011;BME280;59543;37.950;-122.338;2023-05-20T10:47:30;101636.03;;;11.78;96.12
70011;BME280;59543;37.950;-122.338;2023-05-20T10:49:57;101642.00;;;11.82;95.60
70011;BME280;59543;37.950;-122.338;2023-05-20T10:52:24;101645.97;;;11.78;96.19
70011;BME280;59543;37.950;-122.338;2023-05-20T10:54:55;101643.75;;;11.83;95.60
70011;BME280;59543;37.950;-122.338;2023-05-20T10:57:24;101644.59;;;11.83;95.28
70011;BME280;59543;37.950;-122.338;2023-05-20T10:59:51;101640.97;;;11.94;94.81
70011;BME280;59543;37.950;-122.338;2023-05-20T11:02:19;101645.38;;;11.95;94.82
70011;BME280;59543;37.950;-122.338;2023-05-20T11:04:51;101643.84;;;12.02;93.99
70011;BME280;59543;37.950;-122.338;2023-05-20T11:07:28;101651.47;;;11.97;94.19
70011;BME280;59543;37.950;-122.338;2023-05-20T11:09:56;101652.94;;;12.01;93.86
70011;BME280;59543;37.950;-122.338;2023-05-20T11:12:24;101659.91;;;12.04;93.64
70011;BME280;59543;37.950;-122.338;2023-05-20T11:14:50;101653.00;;;11.90;94.22
70011;BME280;59543;37.950;-122.338;2023-05-20T11:17:18;101647.63;;;11.90;94.24
70011;BME280;59543;37.950;-122.338;2023-05-20T11:19:45;101643.81;;;11.93;93.83
70011;BME280;59543;37.950;-122.338;2023-05-20T11:22:12;101648.91;;;11.86;94.63
70011;BME280;59543;37.950;-122.338;2023-05-20T11:24:38;101649.31;;;11.91;94.44
70011;BME280;59543;37.950;-122.338;2023-05-20T11:27:05;101654.44;;;11.94;94.11
70011;BME280;59543;37.950;-122.338;2023-05-20T11:29:32;101658.28;;;11.92;94.74
70011;BME280;59543;37.950;-122.338;2023-05-20T11:31:59;101657.94;;;11.85;95.09
70011;BME280;59543;37.950;-122.338;2023-05-20T11:34:32;101664.66;;;11.90;94.58
70011;BME280;59543;37.950;-122.338;2023-05-20T11:36:59;101658.31;;;12.01;94.04
70011;BME280;59543;37.950;-122.338;2023-05-20T11:39:28;101655.16;;;11.96;94.28
70011;BME280;59543;37.950;-122.338;2023-05-20T11:41:56;101649.59;;;11.88;94.67
70011;BME280;59543;37.950;-122.338;2023-05-20T11:44:23;101651.16;;;11.90;95.04
70011;BME280;59543;37.950;-122.338;2023-05-20T11:46:50;101649.88;;;11.85;94.70
70011;BME280;59543;37.950;-122.338;2023-05-20T11:49:16;101651.81;;;12.04;94.12
70011;BME280;59543;37.950;-122.338;2023-05-20T11:51:43;101655.44;;;11.93;93.92
70011;BME280;59543;37.950;-122.338;2023-05-20T11:54:09;101657.22;;;11.83;94.41
70011;BME280;59543;37.950;-122.338;2023-05-20T11:56:36;101659.91;;;11.83;95.00
70011;BME280;59543;37.950;-122.338;2023-05-20T11:59:04;101658.81;;;11.85;94.46
70011;BME280;59543;37.950;-122.338;2023-05-20T12:01:38;101658.69;;;11.87;94.47
70011;BME280;59543;37.950;-122.338;2023-05-20T12:04:11;101666.50;;;11.90;94.24
70011;BME280;59543;37.950;-122.338;2023-05-20T12:06:42;101662.22;;;11.87;94.32
70011;BME280;59543;37.950;-122.338;2023-05-20T12:09:09;101657.56;;;11.89;94.19
70011;BME280;59543;37.950;-122.338;2023-05-20T12:11:36;101666.03;;;11.85;94.45
70011;BME280;59543;37.950;-122.338;2023-05-20T12:14:05;101665.06;;;11.86;94.47
70011;BME280;59543;37.950;-122.338;2023-05-20T12:16:34;101678.31;;;11.78;95.03
70011;BME280;59543;37.950;-122.338;2023-05-20T12:19:00;101672.84;;;12.10;93.52
70011;BME280;59543;37.950;-122.338;2023-05-20T12:21:30;101681.34;;;11.84;94.38
70011;BME280;59543;37.950;-122.338;2023-05-20T12:23:58;101675.09;;;11.84;94.79
70011;BME280;59543;37.950;-122.338;2023-05-20T12:26:26;101669.78;;;11.94;94.29
70011;BME280;59543;37.950;-122.338;2023-05-20T12:28:53;101672.03;;;11.88;93.99
70011;BME280;59543;37.950;-122.338;2023-05-20T12:31:20;101672.03;;;11.88;94.31